Time;durP1;ratioP1;P1;durP2;ratioP2;P2;SDS_P1;SDS_P2;PMS_P1;PMS_P2;Temp;Humidity;BMP_temperature;BMP_pressure;BME280_temperature;BME280_humidity;BME280_pressure;Samples;Min_cycle;Max_cycle;Signal;HPM_P1;HPM_P2
2022/02/10 00:06:59;;;;;;;;;;;;;;;7.24;100.00;101140.66;5083960;57;1139203;-78
2022/02/10 00:17:32;;;;;;;10.30;6.47;;;;;;;7.23;100.00;101129.29;5080312;57;1137279;-79
2022/02/10 00:22:39;;;;;;;10.10;7.27;;;;;;;7.25;100.00;101123.95;5078476;57;1141155;-75
2022/02/10 00:38:28;;;;;;;8.35;6.30;;;;;;;7.28;100.00;101131.69;5131875;57;1139054;-76
2022/02/10 00:43:31;;;;;;;8.23;5.80;;;;;;;7.29;100.00;101139.50;5075508;58;1139121;-77
2022/02/10 00:48:36;;;;;;;9.57;6.87;;;;;;;7.28;100.00;101132.53;5075634;58;1139047;-71
2022/02/10 00:53:43;;;;;;;8.07;6.50;;;;;;;7.27;100.00;101132.15;5131585;57;1139011;-75
2022/02/10 00:58:58;;;;;;;7.53;5.47;;;;;;;7.27;100.00;101136.56;5131467;57;1139137;-71
2022/02/10 01:30:26;;;;;;;8.47;6.93;;;;;;;7.19;100.00;101112.43;4989430;59;1137035;-76
2022/02/10 01:35:32;;;;;;;6.53;5.87;;;;;;;7.21;100.00;101106.62;4988681;59;1137216;-74
2022/02/10 02:07:28;;;;;;;15.20;5.77;;;;;;;7.34;100.00;101092.71;5164514;56;1138994;-74
2022/02/10 02:12:29;;;;;;;6.87;5.13;;;;;;;7.34;100.00;101084.81;5163432;56;1141033;-76
2022/02/10 02:17:34;;;;;;;6.87;5.37;;;;;;;7.34;100.00;101079.55;5165503;56;1139104;-74
2022/02/10 02:22:41;;;;;;;9.17;6.00;;;;;;;7.34;100.00;101080.87;5164260;56;1138979;-76
2022/02/10 02:27:53;;;;;;;8.87;6.33;;;;;;;7.35;100.00;101083.03;5165177;56;1139078;-70
2022/02/10 03:05:29;;;;;;;7.72;5.87;;;;;;;7.32;100.00;101073.56;5165471;56;1137090;-76
2022/02/10 04:09:58;;;;;;;12.53;8.27;;;;;;;7.14;100.00;101081.14;5131522;57;1139037;-79
2022/02/10 04:14:34;;;;;;;12.93;8.07;;;;;;;7.15;100.00;101071.47;5117725;57;1141133;-78
2022/02/10 04:25:06;;;;;;;10.32;7.33;;;;;;;7.08;100.00;101072.72;5079265;57;1139047;-73
2022/02/10 04:42:10;;;;;;;8.50;6.83;;;;;;;7.05;100.00;101061.89;5136623;57;1138936;-76
2022/02/10 05:07:46;;;;;;;11.33;7.77;;;;;;;6.98;100.00;101048.70;5135919;57;1141380;-75
2022/02/10 05:23:14;;;;;;;30.37;18.67;;;;;;;6.98;100.00;101031.15;5097302;57;1143359;-76
2022/02/10 05:33:34;;;;;;;24.77;12.28;;;;;;;6.92;100.00;101026.67;5136965;57;1143423;-76
2022/02/10 05:38:40;;;;;;;17.27;10.48;;;;;;;6.93;100.00;101024.43;5130323;57;1143196;-75
2022/02/10 05:43:46;;;;;;;17.67;10.27;;;;;;;6.88;100.00;101027.77;5141357;56;1143196;-70
2022/02/10 05:54:36;;;;;;;15.53;9.90;;;;;;;6.95;100.00;101034.41;5172375;56;1143528;-72
2022/02/10 07:56:52;;;;;;;129.10;82.60;;;;;;;6.76;100.00;100992.94;5164331;57;1141084;-73
2022/02/10 08:50:17;;;;;;;15.13;10.20;;;;;;;7.21;100.00;100951.41;5155564;57;1143112;-75
2022/02/10 08:55:35;;;;;;;11.87;8.80;;;;;;;7.18;100.00;100943.22;5131958;57;1143102;-74
2022/02/10 09:06:07;;;;;;;16.73;10.90;;;;;;;7.27;100.00;100924.77;5133956;57;1141186;-79
2022/02/10 09:59:39;;;;;;;14.58;9.20;;;;;;;8.09;100.00;100899.66;5156311;57;1143246;-76
2022/02/10 10:04:39;;;;;;;17.10;8.93;;;;;;;8.13;100.00;100891.92;5163386;56;1140999;-73
2022/02/10 10:09:51;;;;;;;14.43;9.17;;;;;;;8.19;100.00;100887.23;5163463;57;1141005;-72
2022/02/10 10:15:18;;;;;;;11.73;8.07;;;;;;;8.20;100.00;100884.97;5159458;57;1141036;-77
2022/02/10 10:20:44;;;;;;;14.80;8.20;;;;;;;8.17;100.00;100878.56;5181187;56;1141083;-78
2022/02/10 10:57:35;;;;;;;13.73;7.73;;;;;;;8.22;100.00;100809.32;5163918;57;1139039;-72
2022/02/10 11:47:13;;;;;;;40.40;22.40;;;;;;;8.30;100.00;100705.58;5163710;57;1139223;-72
2022/02/10 14:18:09;;;;;;;16.00;9.50;;;;;;;9.06;100.00;100489.44;5164889;57;1139243;-70
2022/02/10 14:25:40;;;;;;;33.27;22.03;;;;;;;8.98;100.00;100483.88;5164126;57;1138999;-76
2022/02/10 14:28:27;;;;;;;51.90;24.00;;;;;;;8.93;100.00;100494.75;5158736;57;1138939;-77
2022/02/10 14:33:36;;;;;;;71.40;44.17;;;;;;;8.88;100.00;100492.91;5162983;57;1138925;-76
2022/02/10 14:38:51;;;;;;;32.00;15.33;;;;;;;8.79;100.00;100494.41;5125338;57;1143115;-74
2022/02/10 15:21:39;;;;;;;17.13;9.03;;;;;;;7.81;100.00;100515.66;5112051;56;1143007;-76
2022/02/10 16:19:48;;;;;;;24.20;13.90;;;;;;;7.60;100.00;100514.84;5164152;56;1145543;-78
2022/02/10 16:25:04;;;;;;;23.73;10.50;;;;;;;7.59;100.00;100517.09;5164962;57;1143252;-73
2022/02/10 16:30:13;;;;;;;23.50;12.73;;;;;;;7.59;100.00;100519.73;5162869;57;1143380;-72
2022/02/10 16:35:17;;;;;;;35.15;19.23;;;;;;;7.59;100.00;100526.78;5161367;57;1143732;-73
2022/02/10 16:40:23;;;;;;;30.53;17.87;;;;;;;7.57;100.00;100535.24;5164561;57;1143148;-75
2022/02/10 16:45:29;;;;;;;27.77;14.60;;;;;;;7.55;100.00;100531.39;5163288;57;1143120;-79
2022/02/10 16:50:34;;;;;;;12.10;6.33;;;;;;;7.48;100.00;100556.91;5163988;56;1143357;-84
2022/02/10 16:55:47;;;;;;;15.88;9.28;;;;;;;7.26;100.00;100570.09;5161965;57;1141250;-78
2022/02/10 17:27:40;;;;;;;39.17;21.37;;;;;;;6.19;100.00;100624.34;5164032;57;1143160;-79
2022/02/10 17:54:03;;;;;;;86.23;46.77;;;;;;;5.70;100.00;100672.62;5165060;57;1141113;-78
2022/02/10 17:59:09;;;;;;;90.57;54.07;;;;;;;5.59;100.00;100679.78;5165066;57;1138926;-74
2022/02/10 18:04:17;;;;;;;46.00;20.50;;;;;;;5.53;100.00;100688.83;5166508;56;1138918;-77
2022/02/10 18:10:12;;;;;;;114.23;71.27;;;;;;;5.46;100.00;100695.34;5165112;57;1143161;-73
2022/02/10 18:14:56;;;;;;;61.93;30.90;;;;;;;5.40;100.00;100693.04;5158961;57;1145162;-74
2022/02/10 18:20:03;;;;;;;61.67;32.93;;;;;;;5.37;100.00;100710.24;5163764;57;1143173;-80
2022/02/10 18:30:18;;;;;;;19.67;12.43;;;;;;;5.34;100.00;100705.65;5165369;56;1143136;-79
2022/02/10 19:12:29;;;;;;;14.07;7.17;;;;;;;4.99;100.00;100755.52;5150270;57;1143143;-79
2022/02/10 19:17:33;;;;;;;19.30;16.13;;;;;;;5.02;100.00;100755.36;5151994;57;1141161;-79
2022/02/10 19:22:41;;;;;;;9.77;4.20;;;;;;;4.97;100.00;100765.68;5152070;57;1143393;-79
2022/02/10 19:27:48;;;;;;;9.73;7.10;;;;;;;4.95;100.00;100758.73;5151462;57;1138997;-80
2022/02/10 19:32:58;;;;;;;5.37;3.07;;;;;;;4.95;100.00;100761.83;5151709;57;1139015;-81
2022/02/10 19:38:04;;;;;;;5.80;3.03;;;;;;;4.93;100.00;100764.98;5076355;57;1137045;-73
2022/02/10 19:43:11;;;;;;;9.23;3.60;;;;;;;4.92;100.00;100768.06;5076039;57;1136887;-76
2022/02/10 19:48:19;;;;;;;17.60;5.07;;;;;;;4.84;100.00;100765.45;5144068;57;1134918;-72
2022/02/10 19:53:25;;;;;;;25.77;6.60;;;;;;;4.77;100.00;100765.36;5151694;57;1138960;-75
2022/02/10 19:58:32;;;;;;;18.90;6.13;;;;;;;4.77;100.00;100768.83;5154148;56;1138976;-76
2022/02/10 20:03:40;;;;;;;24.37;9.53;;;;;;;4.75;100.00;100765.89;5098415;57;1139006;-78
2022/02/10 20:08:47;;;;;;;15.20;6.13;;;;;;;4.74;100.00;100775.98;5080117;58;1139056;-75
2022/02/10 20:13:53;;;;;;;22.30;8.77;;;;;;;4.72;100.00;100781.79;5099798;57;1139010;-75
2022/02/10 20:19:01;;;;;;;27.80;10.90;;;;;;;4.70;100.00;100783.17;5165311;56;1139025;-77
2022/02/10 20:24:07;;;;;;;19.03;7.73;;;;;;;4.70;100.00;100794.95;5164636;57;1138962;-75
2022/02/10 20:29:14;;;;;;;14.03;6.13;;;;;;;4.70;100.00;100800.66;5163052;57;1138975;-78
2022/02/10 20:34:23;;;;;;;7.27;3.80;;;;;;;4.69;100.00;100801.12;5150570;56;1138975;-80
2022/02/10 20:39:29;;;;;;;35.03;9.87;;;;;;;4.65;100.00;100808.73;5082324;57;1136960;-81
2022/02/10 20:44:41;;;;;;;40.73;25.23;;;;;;;4.57;100.00;100811.73;5162650;56;1138920;-81
2022/02/10 20:49:45;;;;;;;259.47;132.57;;;;;;;4.51;100.00;100814.64;5165250;56;1139010;-76
2022/02/10 20:54:51;;;;;;;82.73;19.10;;;;;;;4.41;100.00;100816.47;5165030;56;1143135;-72
2022/02/10 20:59:57;;;;;;;40.90;11.83;;;;;;;4.36;100.00;100817.14;5165190;57;1143030;-80
2022/02/10 21:05:17;;;;;;;10.43;4.40;;;;;;;4.33;100.00;100818.12;5165129;56;1143151;-79
2022/02/10 21:10:14;;;;;;;17.52;4.90;;;;;;;4.28;100.00;100813.55;5156256;57;1141003;-79
2022/02/10 21:15:25;;;;;;;7.00;3.70;;;;;;;4.23;100.00;100810.33;5109449;57;1141603;-73
2022/02/10 21:20:29;;;;;;;8.60;4.97;;;;;;;4.22;100.00;100812.09;5137405;57;1138788;-78
2022/02/10 21:25:35;;;;;;;18.80;6.20;;;;;;;4.24;100.00;100815.49;5130181;57;1138614;-77
2022/02/10 21:30:40;;;;;;;18.17;7.13;;;;;;;4.22;100.00;100808.62;5126771;56;1141281;-81
2022/02/10 22:23:31;;;;;;;66.93;19.67;;;;;;;4.05;100.00;100843.89;5136482;57;1141134;-78
2022/02/10 22:28:49;;;;;;;21.03;7.60;;;;;;;4.05;100.00;100846.50;5136295;56;1141142;-70
2022/02/10 22:39:05;;;;;;;8.67;3.87;;;;;;;4.07;100.00;100853.83;5132411;57;1139125;-73
2022/02/10 22:44:11;;;;;;;8.17;4.07;;;;;;;4.08;100.00;100859.00;5131898;57;1136852;-77
2022/02/10 22:49:17;;;;;;;7.80;4.30;;;;;;;4.09;100.00;100859.84;5132039;57;1136896;-77
2022/02/10 22:54:23;;;;;;;8.50;4.57;;;;;;;4.09;100.00;100858.54;5131689;57;1136921;-74
2022/02/10 22:59:30;;;;;;;6.23;3.87;;;;;;;4.11;100.00;100855.39;5131906;57;1137178;-77
2022/02/10 23:04:36;;;;;;;12.47;5.12;;;;;;;4.11;100.00;100862.79;5149656;57;1137214;-73
2022/02/10 23:09:48;;;;;;;9.20;4.47;;;;;;;4.13;100.00;100862.23;5151907;57;1138971;-75
2022/02/10 23:14:52;;;;;;;7.93;4.77;;;;;;;4.13;100.00;100859.62;5151815;57;1137104;-71
2022/02/10 23:19:57;;;;;;;8.00;4.57;;;;;;;4.15;100.00;100853.86;5151951;57;1137183;-75
2022/02/10 23:25:03;;;;;;;7.57;5.17;;;;;;;4.16;100.00;100856.86;5151738;57;1136965;-80
2022/02/10 23:30:09;;;;;;;10.50;6.57;;;;;;;4.14;100.00;100856.08;5151847;57;1136927;-74
2022/02/10 23:41:04;;;;;;;7.53;4.65;;;;;;;4.14;100.00;100861.31;5156766;57;1146196;-77
2022/02/10 23:45:47;;;;;;;11.67;5.60;;;;;;;4.19;100.00;100872.44;5151767;57;1138970;-79
2022/02/10 23:50:52;;;;;;;18.93;7.80;;;;;;;4.22;100.00;100858.36;5156231;57;1141157;-75
2022/02/10 23:56:02;;;;;;;12.17;6.13;;;;;;;4.27;100.00;100864.25;5156380;56;1141086;-72
